createdAt,value
2022-08-28T00:02:25.393Z,3.83
2022-08-28T00:04:52.174Z,6.97
2022-08-28T00:07:20.245Z,5.72
2022-08-28T00:09:46.876Z,7.55
2022-08-28T00:12:13.582Z,5.97
2022-08-28T00:14:40.488Z,8.02
2022-08-28T00:17:07.206Z,6.00
2022-08-28T00:19:38.013Z,7.05
2022-08-28T00:22:06.145Z,5.60
2022-08-28T00:24:34.574Z,4.40
2022-08-28T00:27:03.615Z,7.82
2022-08-28T00:29:30.733Z,8.40
2022-08-28T00:31:57.967Z,8.85
2022-08-28T00:34:32.044Z,5.70
2022-08-28T00:37:00.549Z,6.57
2022-08-28T00:39:27.292Z,5.65
2022-08-28T00:41:57.981Z,4.53
2022-08-28T00:44:26.938Z,7.50
2022-08-28T00:46:55.400Z,8.20
2022-08-28T00:49:24.845Z,8.95
2022-08-28T00:51:53.858Z,5.63
2022-08-28T00:54:21.354Z,7.07
2022-08-28T00:56:49.938Z,9.27
2022-08-28T00:59:20.606Z,6.78
2022-08-28T01:01:48.437Z,9.43
2022-08-28T01:04:16.882Z,6.40
2022-08-28T01:06:46.353Z,6.25
2022-08-28T01:09:12.893Z,9.43
2022-08-28T01:11:41.264Z,8.38
2022-08-28T01:14:08.827Z,5.28
2022-08-28T01:16:37.344Z,5.82
2022-08-28T01:19:09.663Z,6.95
2022-08-28T01:21:46.839Z,5.55
2022-08-28T01:24:18.439Z,6.78
2022-08-28T01:26:45.068Z,6.97
2022-08-28T01:29:12.240Z,8.63
2022-08-28T01:31:40.151Z,6.97
2022-08-28T01:34:09.672Z,7.75
2022-08-28T01:36:36.506Z,6.03
2022-08-28T01:39:07.314Z,7.47
2022-08-28T01:41:38.586Z,8.40
2022-08-28T01:44:05.321Z,6.15
2022-08-28T01:46:32.402Z,8.07
2022-08-28T01:48:59.629Z,7.45
2022-08-28T01:51:27.567Z,8.48
2022-08-28T01:53:54.236Z,7.00
2022-08-28T01:56:20.927Z,6.88
2022-08-28T01:58:49.063Z,6.80
2022-08-28T02:01:20.191Z,4.65
2022-08-28T02:03:47.236Z,11.15
2022-08-28T02:06:15.391Z,9.50
2022-08-28T02:08:42.355Z,6.60
2022-08-28T02:11:09.755Z,5.70
2022-08-28T02:13:38.983Z,8.98
2022-08-28T02:16:09.043Z,7.97
2022-08-28T02:18:36.720Z,6.55
2022-08-28T02:21:03.535Z,5.95
2022-08-28T02:23:30.332Z,6.93
2022-08-28T02:25:56.992Z,9.65
2022-08-28T02:28:23.616Z,6.63
2022-08-28T02:30:50.381Z,7.55
2022-08-28T02:33:18.451Z,8.45
2022-08-28T02:35:45.168Z,8.90
2022-08-28T02:38:11.914Z,5.80
2022-08-28T02:40:39.790Z,8.68
2022-08-28T02:43:06.555Z,6.72
2022-08-28T02:45:33.573Z,6.03
2022-08-28T02:48:00.164Z,7.95
2022-08-28T02:50:29.093Z,9.15
2022-08-28T02:52:56.277Z,9.15
2022-08-28T02:55:23.396Z,6.18
2022-08-28T02:57:50.737Z,8.20
2022-08-28T03:00:21.098Z,7.93
2022-08-28T03:02:48.689Z,7.32
2022-08-28T03:05:19.041Z,9.75
2022-08-28T03:07:47.266Z,8.05
2022-08-28T03:10:14.894Z,7.57
2022-08-28T03:12:41.608Z,6.50
2022-08-28T03:15:09.068Z,7.93
2022-08-28T03:17:36.657Z,6.63
2022-08-28T03:20:04.756Z,8.38
2022-08-28T03:22:31.572Z,8.70
2022-08-28T03:24:59.769Z,7.45
2022-08-28T03:27:26.374Z,8.48
2022-08-28T03:29:53.043Z,6.28
2022-08-28T03:32:19.678Z,6.90
2022-08-28T03:34:46.348Z,5.60
2022-08-28T03:37:13.919Z,7.78
2022-08-28T03:39:40.661Z,9.77
2022-08-28T03:42:08.790Z,11.02
2022-08-28T03:44:38.209Z,8.57
2022-08-28T03:47:05.631Z,7.15
2022-08-28T03:49:32.395Z,7.22
2022-08-28T03:51:59.050Z,9.20
2022-08-28T03:54:25.662Z,8.25
2022-08-28T03:56:52.375Z,5.88
2022-08-28T03:59:20.366Z,7.75
2022-08-28T04:04:17.627Z,7.22
2022-08-28T04:06:44.377Z,16.75
2022-08-28T04:09:11.149Z,6.50
2022-08-28T04:11:38.256Z,7.82
2022-08-28T04:14:04.883Z,7.28
2022-08-28T04:16:32.988Z,8.02
2022-08-28T04:18:59.605Z,6.38
2022-08-28T04:21:26.429Z,9.18
2022-08-28T04:23:55.114Z,8.25
2022-08-28T04:26:25.279Z,6.15
2022-08-28T04:28:52.743Z,8.02
2022-08-28T04:31:31.121Z,8.35
2022-08-28T04:34:01.978Z,6.25
2022-08-28T04:36:29.048Z,5.95
2022-08-28T04:38:56.926Z,8.93
2022-08-28T04:41:23.616Z,8.70
2022-08-28T04:43:50.325Z,10.43
2022-08-28T04:46:16.997Z,7.13
2022-08-28T04:48:44.491Z,7.32
2022-08-28T04:51:13.237Z,9.93
2022-08-28T04:53:39.947Z,9.90
2022-08-28T04:56:09.232Z,9.43
2022-08-28T04:58:36.950Z,8.70
2022-08-28T05:01:06.244Z,7.28
2022-08-28T05:03:32.976Z,8.77
2022-08-28T05:05:59.796Z,8.70
2022-08-28T05:08:27.831Z,10.05
2022-08-28T05:10:55.231Z,7.65
2022-08-28T05:13:22.207Z,11.50
2022-08-28T05:15:51.110Z,8.73
2022-08-28T05:18:21.230Z,10.25
2022-08-28T05:20:48.862Z,9.70
2022-08-28T05:23:16.297Z,8.32
2022-08-28T05:25:47.216Z,9.30
2022-08-28T05:28:15.928Z,9.10
2022-08-28T05:30:43.846Z,11.25
2022-08-28T05:33:13.384Z,7.78
2022-08-28T05:35:44.135Z,9.43
2022-08-28T05:38:12.454Z,10.38
2022-08-28T05:40:44.885Z,9.32
2022-08-28T05:43:13.441Z,10.30
2022-08-28T05:45:40.438Z,9.23
2022-08-28T05:48:07.284Z,9.13
2022-08-28T05:50:36.346Z,8.27
2022-08-28T05:53:03.191Z,9.23
2022-08-28T05:55:29.935Z,9.73
2022-08-28T05:57:58.003Z,9.10
2022-08-28T06:00:24.687Z,10.85
2022-08-28T06:02:51.278Z,7.82
2022-08-28T06:05:19.320Z,11.38
2022-08-28T06:07:45.910Z,11.23
2022-08-28T06:10:12.592Z,10.35
2022-08-28T06:12:39.586Z,12.30
2022-08-28T06:15:09.706Z,10.65
2022-08-28T06:17:36.328Z,14.38
2022-08-28T06:20:03.194Z,9.43
2022-08-28T06:22:29.838Z,12.02
2022-08-28T06:24:56.467Z,9.00
2022-08-28T06:27:23.417Z,10.80
2022-08-28T06:29:50.074Z,8.23
2022-08-28T06:32:18.130Z,12.10
2022-08-28T06:34:44.852Z,9.13
2022-08-28T06:37:11.450Z,9.25
2022-08-28T06:39:38.157Z,7.32
2022-08-28T06:42:05.071Z,8.82
2022-08-28T06:44:31.752Z,9.10
2022-08-28T06:46:58.640Z,7.53
2022-08-28T06:49:26.676Z,10.32
2022-08-28T06:51:53.300Z,11.13
2022-08-28T06:54:23.182Z,8.73
2022-08-28T06:56:50.887Z,9.63
2022-08-28T06:59:17.732Z,9.25
2022-08-28T07:01:44.733Z,7.07
2022-08-28T07:04:12.903Z,7.90
2022-08-28T07:06:43.292Z,7.85
2022-08-28T07:09:10.708Z,7.20
2022-08-28T07:11:38.596Z,8.88
2022-08-28T07:14:06.419Z,9.48
2022-08-28T07:16:35.638Z,12.30
2022-08-28T07:19:02.272Z,7.72
2022-08-28T07:21:28.916Z,9.35
2022-08-28T07:23:57.307Z,8.95
2022-08-28T07:26:25.585Z,11.07
2022-08-28T07:28:53.206Z,7.50
2022-08-28T07:31:36.409Z,11.25
2022-08-28T07:34:03.091Z,6.43
2022-08-28T07:36:30.179Z,9.25
2022-08-28T07:38:59.884Z,7.78
2022-08-28T07:41:28.934Z,11.32
2022-08-28T07:43:56.220Z,9.45
2022-08-28T07:46:22.970Z,12.02
2022-08-28T07:48:49.677Z,14.35
2022-08-28T07:51:16.282Z,7.85
2022-08-28T07:53:42.932Z,7.75
2022-08-28T07:56:11.211Z,7.78
2022-08-28T07:58:37.851Z,10.13
2022-08-28T08:01:04.712Z,8.93
2022-08-28T08:03:31.991Z,12.52
2022-08-28T08:06:00.631Z,5.43
2022-08-28T08:08:27.532Z,8.88
2022-08-28T08:11:00.082Z,6.32
2022-08-28T08:13:29.669Z,6.13
2022-08-28T08:16:01.158Z,7.10
2022-08-28T08:18:27.894Z,5.90
2022-08-28T08:20:54.551Z,7.97
2022-08-28T08:23:21.163Z,8.45
2022-08-28T08:25:54.478Z,5.05
2022-08-28T08:28:21.279Z,8.05
2022-08-28T08:30:49.400Z,4.88
2022-08-28T08:33:16.340Z,5.70
2022-08-28T08:35:42.977Z,6.35
2022-08-28T08:38:09.561Z,7.93
2022-08-28T08:40:36.355Z,3.97
2022-08-28T08:43:03.276Z,5.78
2022-08-28T08:45:31.671Z,7.18
2022-08-28T08:48:00.725Z,6.97
2022-08-28T08:50:30.298Z,3.72
2022-08-28T08:53:16.015Z,7.07
2022-08-28T08:55:46.960Z,5.00
2022-08-28T08:58:23.707Z,6.45
2022-08-28T09:00:57.965Z,3.30
2022-08-28T09:03:38.268Z,4.80
2022-08-28T09:06:21.235Z,5.05
2022-08-28T09:08:52.592Z,4.43
2022-08-28T09:11:30.885Z,5.15
2022-08-28T09:14:05.282Z,3.85
2022-08-28T09:16:36.362Z,6.88
2022-08-28T09:19:05.060Z,3.85
2022-08-28T09:21:34.045Z,3.45
2022-08-28T09:24:05.783Z,2.60
2022-08-28T09:26:34.464Z,4.97
2022-08-28T09:29:04.612Z,4.68
2022-08-28T09:31:33.965Z,4.53
2022-08-28T09:34:21.752Z,2.50
2022-08-28T09:36:48.542Z,5.80
2022-08-28T09:39:18.746Z,5.18
2022-08-28T09:41:52.940Z,2.95
2022-08-28T09:44:19.646Z,4.07
2022-08-28T09:46:49.010Z,4.25
2022-08-28T09:49:25.178Z,3.90
2022-08-28T09:51:52.003Z,4.72
2022-08-28T09:54:25.626Z,4.82
2022-08-28T09:56:52.716Z,2.65
2022-08-28T09:59:21.915Z,5.25
2022-08-28T10:02:01.759Z,3.13
2022-08-28T10:04:42.739Z,3.75
2022-08-28T10:07:16.298Z,2.88
2022-08-28T10:09:52.712Z,6.75
2022-08-28T10:12:35.132Z,3.92
2022-08-28T10:15:10.210Z,9.52
2022-08-28T10:17:47.448Z,2.63
2022-08-28T10:20:24.894Z,4.93
2022-08-28T10:23:02.160Z,4.85
2022-08-28T10:25:38.207Z,2.13
2022-08-28T10:28:29.561Z,2.53
2022-08-28T10:31:09.413Z,7.07
2022-08-28T10:33:52.459Z,3.70
2022-08-28T10:36:34.037Z,1.80
2022-08-28T10:39:13.935Z,2.58
2022-08-28T10:41:45.715Z,2.60
2022-08-28T10:44:17.597Z,2.72
2022-08-28T10:46:49.047Z,2.03
2022-08-28T10:49:23.444Z,3.50
2022-08-28T10:51:55.032Z,3.67
2022-08-28T10:54:30.348Z,5.13
2022-08-28T10:57:02.234Z,4.95
2022-08-28T10:59:32.439Z,4.38
2022-08-28T11:02:04.174Z,4.57
2022-08-28T11:04:31.379Z,2.15
2022-08-28T11:07:04.626Z,3.72
2022-08-28T11:09:34.798Z,3.60
2022-08-28T11:12:04.175Z,4.13
2022-08-28T11:14:33.917Z,4.50
2022-08-28T11:17:05.096Z,1.45
2022-08-28T11:20:04.784Z,4.13
2022-08-28T11:22:38.754Z,2.78
2022-08-28T11:25:16.458Z,2.33
2022-08-28T11:28:16.410Z,1.98
2022-08-28T11:30:44.201Z,3.05
2022-08-28T11:33:37.552Z,3.45
2022-08-28T11:36:05.085Z,2.15
2022-08-28T11:39:04.930Z,1.27
2022-08-28T11:41:33.818Z,1.52
2022-08-28T11:44:39.019Z,2.72
2022-08-28T11:47:42.994Z,4.95
2022-08-28T11:50:30.203Z,3.00
2022-08-28T11:53:25.962Z,1.90
2022-08-28T11:56:26.352Z,3.88
2022-08-28T11:59:09.970Z,2.15
2022-08-28T12:01:37.595Z,2.47
2022-08-28T12:04:08.418Z,4.03
2022-08-28T12:06:54.628Z,3.35
2022-08-28T12:09:43.479Z,2.85
2022-08-28T12:12:51.759Z,2.17
2022-08-28T12:15:39.777Z,1.75
2022-08-28T12:18:13.294Z,2.30
2022-08-28T12:20:56.915Z,4.45
2022-08-28T12:23:40.750Z,3.60
2022-08-28T12:26:22.294Z,4.70
2022-08-28T12:28:53.898Z,1.80
2022-08-28T12:31:51.355Z,2.35
2022-08-28T12:34:27.171Z,3.45
2022-08-28T12:36:58.669Z,1.38
2022-08-28T12:39:26.530Z,2.20
2022-08-28T12:41:53.626Z,2.47
2022-08-28T12:44:25.877Z,2.85
2022-08-28T12:46:53.742Z,2.10
2022-08-28T12:49:30.329Z,2.33
2022-08-28T12:52:16.623Z,5.40
2022-08-28T12:54:45.174Z,6.30
2022-08-28T12:57:14.197Z,2.42
2022-08-28T12:59:45.055Z,2.60
2022-08-28T13:02:19.463Z,3.60
2022-08-28T13:04:54.401Z,1.90
2022-08-28T13:07:27.907Z,1.10
2022-08-28T13:09:58.859Z,1.70
2022-08-28T13:12:37.283Z,2.15
2022-08-28T13:15:57.443Z,1.92
2022-08-28T13:18:39.072Z,1.98
2022-08-28T13:21:33.631Z,1.38
2022-08-28T13:24:24.379Z,4.10
2022-08-28T13:27:00.785Z,1.75
2022-08-28T13:29:27.664Z,3.38
2022-08-28T13:31:59.754Z,2.72
2022-08-28T13:34:28.568Z,2.72
2022-08-28T13:36:57.341Z,1.63
2022-08-28T13:39:24.374Z,1.02
2022-08-28T13:41:54.454Z,2.13
2022-08-28T13:44:34.113Z,3.03
2022-08-28T13:47:05.482Z,2.10
2022-08-28T13:49:32.943Z,1.67
2022-08-28T13:52:01.929Z,1.95
2022-08-28T13:54:30.256Z,1.02
2022-08-28T13:56:58.440Z,1.58
2022-08-28T13:59:25.081Z,3.33
2022-08-28T14:01:56.424Z,4.28
2022-08-28T14:04:24.690Z,1.73
2022-08-28T14:06:51.278Z,1.98
2022-08-28T14:09:17.967Z,1.92
2022-08-28T14:11:45.505Z,4.72
2022-08-28T14:14:12.111Z,1.38
2022-08-28T14:16:40.109Z,2.70
2022-08-28T14:19:07.251Z,3.03
2022-08-28T14:21:37.830Z,4.75
2022-08-28T14:24:07.227Z,5.07
2022-08-28T14:26:35.345Z,1.50
2022-08-28T14:29:04.598Z,1.30
2022-08-28T14:31:31.484Z,1.92
2022-08-28T14:33:58.321Z,1.42
2022-08-28T14:36:26.974Z,2.55
2022-08-28T14:38:57.130Z,3.45
2022-08-28T14:41:24.519Z,5.13
2022-08-28T14:43:51.763Z,2.63
2022-08-28T14:46:20.658Z,2.45
2022-08-28T14:48:47.859Z,1.38
2022-08-28T14:51:14.870Z,1.30
2022-08-28T14:53:41.532Z,1.45
2022-08-28T14:56:10.828Z,5.03
2022-08-28T14:58:37.684Z,3.17
2022-08-28T15:01:05.001Z,1.67
2022-08-28T15:03:32.657Z,2.90
2022-08-28T15:06:00.127Z,1.88
2022-08-28T15:08:26.886Z,2.03
2022-08-28T15:10:53.742Z,1.85
2022-08-28T15:13:21.970Z,3.05
2022-08-28T15:15:48.793Z,2.83
2022-08-28T15:18:16.020Z,5.05
2022-08-28T15:20:45.677Z,2.10
2022-08-28T15:23:14.274Z,3.33
2022-08-28T15:25:41.002Z,4.43
2022-08-28T15:28:07.933Z,1.75
2022-08-28T15:30:36.531Z,2.78
2022-08-28T15:33:03.703Z,2.10
2022-08-28T15:35:30.443Z,3.05
2022-08-28T15:37:57.090Z,1.98
2022-08-28T15:40:23.707Z,1.20
2022-08-28T15:42:50.377Z,2.33
2022-08-28T15:45:17.121Z,2.53
2022-08-28T15:47:45.176Z,2.45
2022-08-28T15:50:11.824Z,1.52
2022-08-28T15:52:38.487Z,2.67
2022-08-28T15:55:05.641Z,1.65
2022-08-28T15:57:32.717Z,1.63
2022-08-28T15:59:59.397Z,5.05
2022-08-28T16:02:26.434Z,1.52
2022-08-28T16:04:55.559Z,3.35
2022-08-28T16:07:23.530Z,3.83
2022-08-28T16:09:50.458Z,2.40
2022-08-28T16:12:17.924Z,2.38
2022-08-28T16:14:58.211Z,1.88
2022-08-28T16:17:24.918Z,1.98
2022-08-28T16:19:51.825Z,2.28
2022-08-28T16:22:19.923Z,3.22
2022-08-28T16:24:46.971Z,2.60
2022-08-28T16:27:15.754Z,1.05
2022-08-28T16:29:43.025Z,1.83
2022-08-28T16:32:09.751Z,2.13
2022-08-28T16:34:38.768Z,1.77
2022-08-28T16:37:07.892Z,2.00
2022-08-28T16:39:36.641Z,2.05
2022-08-28T16:42:03.850Z,3.08
2022-08-28T16:44:30.470Z,2.53
2022-08-28T16:46:57.127Z,1.48
2022-08-28T16:49:24.548Z,4.07
2022-08-28T16:51:51.650Z,1.70
2022-08-28T16:54:18.703Z,1.45
2022-08-28T16:56:47.175Z,1.42
2022-08-28T16:59:13.824Z,2.35
2022-08-28T17:01:42.561Z,3.45
2022-08-28T17:04:09.628Z,2.35
2022-08-28T17:06:36.299Z,3.03
2022-08-28T17:09:03.378Z,2.67
2022-08-28T17:11:30.091Z,2.72
2022-08-28T17:13:58.102Z,1.90
2022-08-28T17:16:25.805Z,1.75
2022-08-28T17:18:52.999Z,3.13
2022-08-28T17:21:19.869Z,5.07
2022-08-28T17:23:46.809Z,2.58
2022-08-28T17:26:13.595Z,1.77
2022-08-28T17:28:40.220Z,3.00
2022-08-28T17:31:08.356Z,2.13
2022-08-28T17:33:36.982Z,2.42
2022-08-28T17:36:05.031Z,2.80
2022-08-28T17:38:35.858Z,3.78
2022-08-28T17:41:02.654Z,1.65
2022-08-28T17:43:29.365Z,1.75
2022-08-28T17:45:55.989Z,1.70
2022-08-28T17:48:24.054Z,2.83
2022-08-28T17:50:51.087Z,2.45
2022-08-28T17:53:17.913Z,1.35
2022-08-28T17:55:45.190Z,3.58
2022-08-28T17:58:12.230Z,2.22
2022-08-28T18:00:39.291Z,4.53
2022-08-28T18:03:05.966Z,2.33
2022-08-28T18:05:34.134Z,3.25
2022-08-28T18:08:00.712Z,3.42
2022-08-28T18:10:27.483Z,3.22
2022-08-28T18:12:54.058Z,2.50
2022-08-28T18:15:20.901Z,3.53
2022-08-28T18:17:47.538Z,3.03
2022-08-28T18:20:14.515Z,2.00
2022-08-28T18:22:42.555Z,2.30
2022-08-28T18:25:09.919Z,2.40
2022-08-28T18:27:36.561Z,2.55
2022-08-28T18:30:04.231Z,2.92
2022-08-28T18:32:30.861Z,3.92
2022-08-28T18:34:57.610Z,4.38
2022-08-28T18:37:24.226Z,2.72
2022-08-28T18:39:52.301Z,2.65
2022-08-28T18:42:21.168Z,5.28
2022-08-28T18:44:47.732Z,1.50
2022-08-28T18:47:14.433Z,2.25
2022-08-28T18:49:41.358Z,3.03
2022-08-28T18:52:08.058Z,2.42
2022-08-28T18:54:34.689Z,2.40
2022-08-28T18:57:04.599Z,2.33
2022-08-28T18:59:32.513Z,1.85
2022-08-28T19:01:59.358Z,4.05
2022-08-28T19:04:26.239Z,2.92
2022-08-28T19:06:52.814Z,2.03
2022-08-28T19:09:20.743Z,4.10
2022-08-28T19:11:48.031Z,2.75
2022-08-28T19:14:16.030Z,4.18
2022-08-28T19:16:42.717Z,7.60
2022-08-28T19:19:09.688Z,2.60
2022-08-28T19:21:36.781Z,2.50
2022-08-28T19:24:03.611Z,1.55
2022-08-28T19:26:30.987Z,2.67
2022-08-28T19:28:57.949Z,3.50
2022-08-28T19:31:26.702Z,3.50
2022-08-28T19:33:54.007Z,3.33
2022-08-28T19:36:20.786Z,2.92
2022-08-28T19:38:47.574Z,2.60
2022-08-28T19:41:14.850Z,3.38
2022-08-28T19:43:43.414Z,2.30
2022-08-28T19:46:19.664Z,2.42
2022-08-28T19:48:49.564Z,4.70
2022-08-28T19:51:17.435Z,2.72
2022-08-28T19:53:44.920Z,2.22
2022-08-28T19:56:11.514Z,1.85
2022-08-28T19:58:38.183Z,3.80
2022-08-28T20:01:05.282Z,4.35
2022-08-28T20:03:32.227Z,4.40
2022-08-28T20:06:01.213Z,2.83
2022-08-28T20:08:27.826Z,1.83
2022-08-28T20:10:54.403Z,2.30
2022-08-28T20:13:21.078Z,3.10
2022-08-28T20:15:48.536Z,4.22
2022-08-28T20:18:16.449Z,2.40
2022-08-28T20:20:43.947Z,2.03
2022-08-28T20:23:12.121Z,3.30
2022-08-28T20:25:38.772Z,2.35
2022-08-28T20:28:05.660Z,2.47
2022-08-28T20:30:32.371Z,2.00
2022-08-28T20:33:00.202Z,2.47
2022-08-28T20:35:27.627Z,3.47
2022-08-28T20:37:54.344Z,6.03
2022-08-28T20:40:22.567Z,5.57
2022-08-28T20:42:49.236Z,4.05
2022-08-28T20:45:18.942Z,1.90
2022-08-28T20:47:46.205Z,3.17
2022-08-28T20:50:14.021Z,4.00
2022-08-28T20:52:41.197Z,4.25
2022-08-28T20:55:09.015Z,3.47
2022-08-28T20:57:37.015Z,2.22
2022-08-28T21:00:05.990Z,3.25
2022-08-28T21:02:32.786Z,2.08
2022-08-28T21:04:59.782Z,3.03
2022-08-28T21:07:26.895Z,1.90
2022-08-28T21:10:04.901Z,2.38
2022-08-28T21:12:33.703Z,1.98
2022-08-28T21:15:02.364Z,2.70
2022-08-28T21:17:30.746Z,4.07
2022-08-28T21:19:59.750Z,2.88
2022-08-28T21:22:26.618Z,2.22
2022-08-28T21:24:53.260Z,5.72
2022-08-28T21:27:19.953Z,1.85
2022-08-28T21:29:47.838Z,3.10
2022-08-28T21:32:15.952Z,3.25
2022-08-28T21:34:42.647Z,2.67
2022-08-28T21:37:09.288Z,5.72
2022-08-28T21:39:35.993Z,4.53
2022-08-28T21:42:02.661Z,4.68
2022-08-28T21:44:29.299Z,2.60
2022-08-28T21:46:55.948Z,3.55
2022-08-28T21:49:24.017Z,4.78
2022-08-28T21:51:50.823Z,3.15
2022-08-28T21:54:17.817Z,3.33
2022-08-28T21:56:44.440Z,2.45
2022-08-28T21:59:11.041Z,3.30
2022-08-28T22:01:38.049Z,1.90
2022-08-28T22:04:05.340Z,7.25
2022-08-28T22:06:33.414Z,3.05
2022-08-28T22:09:00.508Z,2.30
2022-08-28T22:11:27.405Z,2.63
2022-08-28T22:13:54.547Z,1.92
2022-08-28T22:16:22.406Z,6.18
2022-08-28T22:18:49.071Z,2.25
2022-08-28T22:21:18.954Z,3.08
2022-08-28T22:23:47.413Z,3.65
2022-08-28T22:26:17.479Z,5.18
2022-08-28T22:28:44.643Z,2.40
2022-08-28T22:31:11.330Z,4.80
2022-08-28T22:33:38.773Z,2.65
2022-08-28T22:36:06.240Z,4.18
2022-08-28T22:38:33.545Z,4.30
2022-08-28T22:41:01.493Z,3.28
2022-08-28T22:43:28.156Z,4.47
2022-08-28T22:45:54.881Z,1.55
2022-08-28T22:48:21.589Z,2.15
2022-08-28T22:50:48.559Z,3.70
2022-08-28T22:53:17.088Z,2.05
2022-08-28T22:55:43.844Z,1.50
2022-08-28T22:58:12.166Z,2.28
2022-08-28T23:00:40.360Z,3.45
2022-08-28T23:03:07.076Z,1.55
2022-08-28T23:05:33.728Z,1.13
2022-08-28T23:08:00.474Z,1.48
2022-08-28T23:10:48.341Z,2.60
2022-08-28T23:13:15.834Z,3.65
2022-08-28T23:15:42.735Z,5.90
2022-08-28T23:18:10.726Z,3.70
2022-08-28T23:20:37.455Z,1.65
2022-08-28T23:23:04.175Z,3.63
2022-08-28T23:25:30.841Z,2.65
2022-08-28T23:27:57.516Z,2.10
2022-08-28T23:30:26.182Z,2.60
2022-08-28T23:32:53.368Z,2.38
2022-08-28T23:35:20.633Z,1.95
2022-08-28T23:37:48.998Z,1.55
2022-08-28T23:40:21.105Z,2.90
2022-08-28T23:42:48.885Z,2.85
2022-08-28T23:45:17.722Z,4.47
2022-08-28T23:47:46.191Z,2.03
2022-08-28T23:50:16.496Z,4.32
2022-08-28T23:52:43.249Z,2.30
2022-08-28T23:55:12.316Z,2.08
2022-08-28T23:57:39.453Z,1.90
